sensor_id;sensor_type;location;lat;lon;timestamp;pressure;altitude;pressure_sealevel;temperature;humidity
21276;BME280;36472;52.170;20.884;2024-02-21T00:02:06;100902.78;;;5.88;95.70
21276;BME280;36472;52.170;20.884;2024-02-21T00:04:36;100901.69;;;5.93;95.53
21276;BME280;36472;52.170;20.884;2024-02-21T00:07:06;100906.81;;;5.96;95.56
21276;BME280;36472;52.170;20.884;2024-02-21T00:09:35;100898.75;;;6.03;95.59
21276;BME280;36472;52.170;20.884;2024-02-21T00:12:05;100903.91;;;6.04;95.57
21276;BME280;36472;52.170;20.884;2024-02-21T00:14:35;100900.25;;;6.10;95.71
21276;BME280;36472;52.170;20.884;2024-02-21T00:17:03;100902.84;;;6.10;95.79
21276;BME280;36472;52.170;20.884;2024-02-21T00:19:33;100898.28;;;6.15;95.53
21276;BME280;36472;52.170;20.884;2024-02-21T00:22:04;100892.03;;;6.19;95.48
21276;BME280;36472;52.170;20.884;2024-02-21T00:24:33;100892.88;;;6.20;95.21
21276;BME280;36472;52.170;20.884;2024-02-21T00:27:02;100893.91;;;6.15;95.17
21276;BME280;36472;52.170;20.884;2024-02-21T00:29:31;100887.53;;;6.23;95.56
21276;BME280;36472;52.170;20.884;2024-02-21T00:32:00;100891.81;;;6.25;95.97
21276;BME280;36472;52.170;20.884;2024-02-21T00:34:29;100883.81;;;6.28;95.55
21276;BME280;36472;52.170;20.884;2024-02-21T00:36:58;100876.16;;;6.25;95.54
21276;BME280;36472;52.170;20.884;2024-02-21T00:39:29;100885.59;;;6.28;96.06
21276;BME280;36472;52.170;20.884;2024-02-21T00:41:58;100889.72;;;6.33;95.81
21276;BME280;36472;52.170;20.884;2024-02-21T00:44:27;100881.81;;;6.35;95.60
21276;BME280;36472;52.170;20.884;2024-02-21T00:46:55;100878.31;;;6.36;95.93
21276;BME280;36472;52.170;20.884;2024-02-21T00:49:25;100885.97;;;6.41;95.95
21276;BME280;36472;52.170;20.884;2024-02-21T00:51:54;100884.22;;;6.41;95.93
21276;BME280;36472;52.170;20.884;2024-02-21T00:54:23;100880.16;;;6.34;96.34
21276;BME280;36472;52.170;20.884;2024-02-21T00:56:57;100875.66;;;6.38;96.50
21276;BME280;36472;52.170;20.884;2024-02-21T00:59:26;100882.56;;;6.39;96.48
21276;BME280;36472;52.170;20.884;2024-02-21T01:01:55;100874.78;;;6.37;96.74
21276;BME280;36472;52.170;20.884;2024-02-21T01:04:25;100866.88;;;6.39;97.00
21276;BME280;36472;52.170;20.884;2024-02-21T01:06:54;100866.03;;;6.38;97.38
21276;BME280;36472;52.170;20.884;2024-02-21T01:09:23;100869.66;;;6.35;97.43
21276;BME280;36472;52.170;20.884;2024-02-21T01:11:52;100864.50;;;6.34;97.67
21276;BME280;36472;52.170;20.884;2024-02-21T01:14:22;100864.59;;;6.31;98.22
21276;BME280;36472;52.170;20.884;2024-02-21T01:16:51;100858.66;;;6.27;98.35
21276;BME280;36472;52.170;20.884;2024-02-21T01:19:20;100853.31;;;6.30;99.06
21276;BME280;36472;52.170;20.884;2024-02-21T01:21:49;100850.56;;;6.33;99.00
21276;BME280;36472;52.170;20.884;2024-02-21T01:24:19;100847.00;;;6.36;99.28
21276;BME280;36472;52.170;20.884;2024-02-21T01:26:48;100852.94;;;6.40;99.39
21276;BME280;36472;52.170;20.884;2024-02-21T01:29:17;100852.69;;;6.46;99.17
21276;BME280;36472;52.170;20.884;2024-02-21T01:31:48;100852.44;;;6.52;98.91
21276;BME280;36472;52.170;20.884;2024-02-21T01:34:17;100848.25;;;6.48;98.96
21276;BME280;36472;52.170;20.884;2024-02-21T01:36:46;100845.53;;;6.51;98.68
21276;BME280;36472;52.170;20.884;2024-02-21T01:39:15;100843.75;;;6.51;98.35
21276;BME280;36472;52.170;20.884;2024-02-21T01:41:44;100841.19;;;6.50;98.63
21276;BME280;36472;52.170;20.884;2024-02-21T01:44:13;100836.50;;;6.58;98.72
21276;BME280;36472;52.170;20.884;2024-02-21T01:46:43;100840.63;;;6.64;98.37
21276;BME280;36472;52.170;20.884;2024-02-21T01:49:13;100841.56;;;6.63;98.36
21276;BME280;36472;52.170;20.884;2024-02-21T01:51:44;100843.41;;;6.59;98.38
21276;BME280;36472;52.170;20.884;2024-02-21T01:54:15;100841.09;;;6.53;98.75
21276;BME280;36472;52.170;20.884;2024-02-21T01:56:46;100846.19;;;6.56;99.12
21276;BME280;36472;52.170;20.884;2024-02-21T01:59:16;100828.03;;;6.53;99.06
21276;BME280;36472;52.170;20.884;2024-02-21T02:01:46;100838.59;;;6.50;99.40
21276;BME280;36472;52.170;20.884;2024-02-21T02:04:17;100831.53;;;6.52;99.27
21276;BME280;36472;52.170;20.884;2024-02-21T02:06:47;100834.03;;;6.55;98.86
21276;BME280;36472;52.170;20.884;2024-02-21T02:09:17;100835.75;;;6.56;99.63
21276;BME280;36472;52.170;20.884;2024-02-21T02:11:46;100836.63;;;6.55;99.72
21276;BME280;36472;52.170;20.884;2024-02-21T02:14:15;100834.56;;;6.63;99.04
21276;BME280;36472;52.170;20.884;2024-02-21T02:16:46;100827.38;;;6.68;98.56
21276;BME280;36472;52.170;20.884;2024-02-21T02:19:17;100828.94;;;6.72;98.52
21276;BME280;36472;52.170;20.884;2024-02-21T02:21:52;100840.16;;;6.74;98.09
21276;BME280;36472;52.170;20.884;2024-02-21T02:24:25;100832.47;;;6.71;98.06
21276;BME280;36472;52.170;20.884;2024-02-21T02:26:55;100827.09;;;6.74;98.27
21276;BME280;36472;52.170;20.884;2024-02-21T02:29:24;100824.31;;;6.79;98.17
21276;BME280;36472;52.170;20.884;2024-02-21T02:31:53;100826.91;;;6.79;97.42
21276;BME280;36472;52.170;20.884;2024-02-21T02:34:22;100814.69;;;6.80;97.32
21276;BME280;36472;52.170;20.884;2024-02-21T02:36:51;100823.47;;;6.79;97.55
21276;BME280;36472;52.170;20.884;2024-02-21T02:39:22;100817.31;;;6.80;97.59
21276;BME280;36472;52.170;20.884;2024-02-21T02:41:52;100818.13;;;6.82;97.51
21276;BME280;36472;52.170;20.884;2024-02-21T02:44:21;100820.66;;;6.83;97.82
21276;BME280;36472;52.170;20.884;2024-02-21T02:46:50;100816.28;;;6.84;97.69
21276;BME280;36472;52.170;20.884;2024-02-21T02:49:19;100824.00;;;6.87;97.61
21276;BME280;36472;52.170;20.884;2024-02-21T02:51:48;100816.16;;;6.87;97.32
21276;BME280;36472;52.170;20.884;2024-02-21T02:54:17;100818.75;;;6.87;97.48
21276;BME280;36472;52.170;20.884;2024-02-21T02:56:46;100818.06;;;6.83;97.70
21276;BME280;36472;52.170;20.884;2024-02-21T02:59:17;100822.69;;;6.77;97.89
21276;BME280;36472;52.170;20.884;2024-02-21T03:01:46;100817.53;;;6.75;97.72
21276;BME280;36472;52.170;20.884;2024-02-21T03:04:15;100818.31;;;6.77;98.08
21276;BME280;36472;52.170;20.884;2024-02-21T03:06:44;100821.75;;;6.78;98.07
21276;BME280;36472;52.170;20.884;2024-02-21T03:09:13;100825.25;;;6.78;97.82
21276;BME280;36472;52.170;20.884;2024-02-21T03:11:43;100819.91;;;6.80;98.05
21276;BME280;36472;52.170;20.884;2024-02-21T03:14:12;100816.28;;;6.84;97.69
21276;BME280;36472;52.170;20.884;2024-02-21T03:16:43;100812.72;;;6.85;97.75
21276;BME280;36472;52.170;20.884;2024-02-21T03:19:12;100819.72;;;6.84;97.50
21276;BME280;36472;52.170;20.884;2024-02-21T03:21:41;100814.56;;;6.83;97.09
21276;BME280;36472;52.170;20.884;2024-02-21T03:24:10;100817.13;;;6.84;97.01
21276;BME280;36472;52.170;20.884;2024-02-21T03:26:39;100817.00;;;6.87;96.71
21276;BME280;36472;52.170;20.884;2024-02-21T03:29:10;100816.28;;;6.84;96.56
21276;BME280;36472;52.170;20.884;2024-02-21T03:31:40;100814.69;;;6.80;96.12
21276;BME280;36472;52.170;20.884;2024-02-21T03:34:11;100809.47;;;6.80;96.41
21276;BME280;36472;52.170;20.884;2024-02-21T03:36:40;100811.06;;;6.84;96.29
21276;BME280;36472;52.170;20.884;2024-02-21T03:39:09;100811.78;;;6.87;96.09
21276;BME280;36472;52.170;20.884;2024-02-21T03:41:38;100806.53;;;6.87;96.04
21276;BME280;36472;52.170;20.884;2024-02-21T03:44:07;100817.06;;;6.86;96.55
21276;BME280;36472;52.170;20.884;2024-02-21T03:46:36;100816.28;;;6.84;96.65
21276;BME280;36472;52.170;20.884;2024-02-21T03:49:05;100812.09;;;6.80;96.75
21276;BME280;36472;52.170;20.884;2024-02-21T03:51:36;100823.34;;;6.82;97.15
21276;BME280;36472;52.170;20.884;2024-02-21T03:54:05;100820.44;;;6.88;96.86
21276;BME280;36472;52.170;20.884;2024-02-21T03:56:37;100816.94;;;6.89;96.71
21276;BME280;36472;52.170;20.884;2024-02-21T03:59:07;100811.69;;;6.89;96.86
21276;BME280;36472;52.170;20.884;2024-02-21T04:01:36;100813.38;;;6.90;97.05
21276;BME280;36472;52.170;20.884;2024-02-21T04:04:05;100806.41;;;6.90;96.63
21276;BME280;36472;52.170;20.884;2024-02-21T04:06:37;100808.81;;;6.95;96.68
21276;BME280;36472;52.170;20.884;2024-02-21T04:09:06;100810.53;;;6.96;96.77
21276;BME280;36472;52.170;20.884;2024-02-21T04:11:35;100807.13;;;6.94;96.73
21276;BME280;36472;52.170;20.884;2024-02-21T04:14:03;100807.84;;;6.98;96.33
21276;BME280;36472;52.170;20.884;2024-02-21T04:16:33;100795.56;;;7.00;96.05
21276;BME280;36472;52.170;20.884;2024-02-21T04:19:01;100795.47;;;7.01;96.27
21276;BME280;36472;52.170;20.884;2024-02-21T04:21:31;100791.91;;;7.04;96.05
21276;BME280;36472;52.170;20.884;2024-02-21T04:24:01;100790.44;;;6.97;96.22
21276;BME280;36472;52.170;20.884;2024-02-21T04:26:34;100785.09;;;7.00;96.39
21276;BME280;36472;52.170;20.884;2024-02-21T04:29:03;100786.69;;;7.04;96.19
21276;BME280;36472;52.170;20.884;2024-02-21T04:31:32;100792.59;;;7.07;96.05
21276;BME280;36472;52.170;20.884;2024-02-21T04:34:02;100783.84;;;7.08;95.74
21276;BME280;36472;52.170;20.884;2024-02-21T04:36:31;100787.22;;;7.10;95.91
21276;BME280;36472;52.170;20.884;2024-02-21T04:39:01;100781.16;;;7.10;96.14
21276;BME280;36472;52.170;20.884;2024-02-21T04:41:31;100786.38;;;7.10;95.65
21276;BME280;36472;52.170;20.884;2024-02-21T04:43:59;100784.53;;;7.12;95.84
21276;BME280;36472;52.170;20.884;2024-02-21T04:46:29;100782.72;;;7.14;95.38
21276;BME280;36472;52.170;20.884;2024-02-21T04:48:59;100791.34;;;7.16;95.45
21276;BME280;36472;52.170;20.884;2024-02-21T04:51:28;100781.72;;;7.17;95.16
21276;BME280;36472;52.170;20.884;2024-02-21T04:53:57;100783.56;;;7.15;95.18
21276;BME280;36472;52.170;20.884;2024-02-21T04:56:27;100782.44;;;7.20;95.22
21276;BME280;36472;52.170;20.884;2024-02-21T04:58:56;100785.00;;;7.22;95.15
21276;BME280;36472;52.170;20.884;2024-02-21T05:01:26;100788.31;;;7.25;95.25
21276;BME280;36472;52.170;20.884;2024-02-21T05:03:57;100790.22;;;7.22;95.37
21276;BME280;36472;52.170;20.884;2024-02-21T05:06:26;100785.13;;;7.19;95.43
21276;BME280;36472;52.170;20.884;2024-02-21T05:08:55;100790.22;;;7.22;95.31
21276;BME280;36472;52.170;20.884;2024-02-21T05:11:27;100780.81;;;7.18;95.36
21276;BME280;36472;52.170;20.884;2024-02-21T05:13:55;100773.81;;;7.18;95.32
21276;BME280;36472;52.170;20.884;2024-02-21T05:16:25;100779.00;;;7.20;95.54
21276;BME280;36472;52.170;20.884;2024-02-21T05:18:53;100776.25;;;7.23;95.50
21276;BME280;36472;52.170;20.884;2024-02-21T05:21:24;100777.97;;;7.22;95.30
21276;BME280;36472;52.170;20.884;2024-02-21T05:23:53;100783.16;;;7.24;95.62
21276;BME280;36472;52.170;20.884;2024-02-21T05:26:23;100779.75;;;7.22;95.59
21276;BME280;36472;52.170;20.884;2024-02-21T05:28:54;100770.63;;;7.11;95.78
21276;BME280;36472;52.170;20.884;2024-02-21T05:31:23;100778.91;;;7.21;96.29
21276;BME280;36472;52.170;20.884;2024-02-21T05:33:52;100779.63;;;7.25;96.36
21276;BME280;36472;52.170;20.884;2024-02-21T05:36:21;100781.41;;;7.24;96.06
21276;BME280;36472;52.170;20.884;2024-02-21T05:38:50;100773.69;;;7.21;96.60
21276;BME280;36472;52.170;20.884;2024-02-21T05:41:20;100771.91;;;7.22;96.13
21276;BME280;36472;52.170;20.884;2024-02-21T05:43:48;100769.56;;;7.16;96.24
21276;BME280;36472;52.170;20.884;2024-02-21T05:46:20;100764.84;;;7.24;96.06
21276;BME280;36472;52.170;20.884;2024-02-21T05:48:49;100764.66;;;7.28;96.17
21276;BME280;36472;52.170;20.884;2024-02-21T05:51:19;100767.06;;;7.33;95.67
21276;BME280;36472;52.170;20.884;2024-02-21T05:53:48;100755.16;;;7.07;96.23
21276;BME280;36472;52.170;20.884;2024-02-21T05:56:17;100755.19;;;7.26;96.46
21276;BME280;36472;52.170;20.884;2024-02-21T05:58:46;100753.34;;;7.28;96.09
21276;BME280;36472;52.170;20.884;2024-02-21T06:01:16;100760.13;;;7.32;96.10
21276;BME280;36472;52.170;20.884;2024-02-21T06:03:47;100765.06;;;7.38;95.90
21276;BME280;36472;52.170;20.884;2024-02-21T06:06:16;100759.78;;;7.40;95.84
21276;BME280;36472;52.170;20.884;2024-02-21T06:08:45;100765.00;;;7.40;95.95
21276;BME280;36472;52.170;20.884;2024-02-21T06:11:14;100761.75;;;7.35;96.07
21276;BME280;36472;52.170;20.884;2024-02-21T06:13:43;100760.69;;;7.39;95.91
21276;BME280;36472;52.170;20.884;2024-02-21T06:16:13;100764.00;;;7.42;95.85
21276;BME280;36472;52.170;20.884;2024-02-21T06:18:42;100759.41;;;7.47;95.50
21276;BME280;36472;52.170;20.884;2024-02-21T06:21:13;100764.56;;;7.49;95.96
21276;BME280;36472;52.170;20.884;2024-02-21T06:23:44;100767.88;;;7.53;95.78
21276;BME280;36472;52.170;20.884;2024-02-21T06:26:13;100753.13;;;7.52;95.40
21276;BME280;36472;52.170;20.884;2024-02-21T06:28:42;100760.75;;;7.56;95.59
21276;BME280;36472;52.170;20.884;2024-02-21T06:31:11;100762.25;;;7.62;95.90
21276;BME280;36472;52.170;20.884;2024-02-21T06:33:41;100769.03;;;7.66;95.32
21276;BME280;36472;52.170;20.884;2024-02-21T06:36:10;100767.88;;;7.72;95.34
21276;BME280;36472;52.170;20.884;2024-02-21T06:38:40;100765.88;;;7.77;95.17
21276;BME280;36472;52.170;20.884;2024-02-21T06:41:15;100763.34;;;7.75;95.44
21276;BME280;36472;52.170;20.884;2024-02-21T06:43:46;100764.03;;;7.79;95.25
21276;BME280;36472;52.170;20.884;2024-02-21T06:46:24;100765.59;;;7.83;95.30
21276;BME280;36472;52.170;20.884;2024-02-21T06:48:54;100768.16;;;7.84;95.12
21276;BME280;36472;52.170;20.884;2024-02-21T06:51:24;100763.81;;;7.83;95.35
21276;BME280;36472;52.170;20.884;2024-02-21T06:53:55;100772.31;;;7.89;95.28
21276;BME280;36472;52.170;20.884;2024-02-21T06:56:25;100770.28;;;7.76;95.73
21276;BME280;36472;52.170;20.884;2024-02-21T06:58:57;100775.13;;;7.84;95.48
21276;BME280;36472;52.170;20.884;2024-02-21T07:01:26;100768.28;;;7.81;95.38
21276;BME280;36472;52.170;20.884;2024-02-21T07:03:55;100773.81;;;7.75;95.46
21276;BME280;36472;52.170;20.884;2024-02-21T07:06:25;100769.28;;;7.79;96.07
21276;BME280;36472;52.170;20.884;2024-02-21T07:08:55;100760.38;;;7.83;95.82
21276;BME280;36472;52.170;20.884;2024-02-21T07:11:24;100764.44;;;7.89;95.68
21276;BME280;36472;52.170;20.884;2024-02-21T07:13:53;100763.22;;;7.96;95.71
21276;BME280;36472;52.170;20.884;2024-02-21T07:16:22;100765.63;;;8.00;95.45
21276;BME280;36472;52.170;20.884;2024-02-21T07:18:51;100763.78;;;8.02;95.14
21276;BME280;36472;52.170;20.884;2024-02-21T07:21:21;100757.56;;;8.05;95.19
21276;BME280;36472;52.170;20.884;2024-02-21T07:23:49;100759.25;;;8.06;94.62
21276;BME280;36472;52.170;20.884;2024-02-21T07:26:20;100753.78;;;8.11;95.04
21276;BME280;36472;52.170;20.884;2024-02-21T07:28:49;100758.09;;;8.12;95.12
21276;BME280;36472;52.170;20.884;2024-02-21T07:31:18;100755.09;;;8.02;95.39
21276;BME280;36472;52.170;20.884;2024-02-21T07:33:47;100748.69;;;8.08;95.08
21276;BME280;36472;52.170;20.884;2024-02-21T07:36:28;100741.38;;;7.97;95.68
21276;BME280;36472;52.170;20.884;2024-02-21T07:38:57;100748.69;;;8.08;95.35
21276;BME280;36472;52.170;20.884;2024-02-21T07:41:28;100743.16;;;8.14;94.88
21276;BME280;36472;52.170;20.884;2024-02-21T07:43:58;100732.69;;;7.96;95.69
21276;BME280;36472;52.170;20.884;2024-02-21T07:46:27;100733.59;;;8.13;95.44
21276;BME280;36472;52.170;20.884;2024-02-21T07:48:57;100725.25;;;8.23;94.94
21276;BME280;36472;52.170;20.884;2024-02-21T07:51:28;100730.16;;;8.30;95.07
21276;BME280;36472;52.170;20.884;2024-02-21T07:53:57;100724.69;;;8.34;95.15
21276;BME280;36472;52.170;20.884;2024-02-21T07:56:29;100719.22;;;8.39;94.95
21276;BME280;36472;52.170;20.884;2024-02-21T07:58:58;100707.69;;;8.43;94.74
21276;BME280;36472;52.170;20.884;2024-02-21T08:01:28;100708.75;;;8.56;94.26
21276;BME280;36472;52.170;20.884;2024-02-21T08:03:57;100708.59;;;8.59;94.36
21276;BME280;36472;52.170;20.884;2024-02-21T08:06:27;100708.72;;;8.21;94.64
21276;BME280;36472;52.170;20.884;2024-02-21T08:08:56;100704.28;;;8.41;94.96
21276;BME280;36472;52.170;20.884;2024-02-21T08:11:26;100700.50;;;8.47;94.88
21276;BME280;36472;52.170;20.884;2024-02-21T08:13:56;100705.09;;;8.59;94.30
21276;BME280;36472;52.170;20.884;2024-02-21T08:16:27;100696.22;;;8.46;94.07
21276;BME280;36472;52.170;20.884;2024-02-21T08:18:55;100693.09;;;8.55;94.40
21276;BME280;36472;52.170;20.884;2024-02-21T08:21:25;100694.09;;;8.70;94.33
21276;BME280;36472;52.170;20.884;2024-02-21T08:23:55;100692.81;;;8.77;93.73
21276;BME280;36472;52.170;20.884;2024-02-21T08:26:24;100694.03;;;8.87;93.33
21276;BME280;36472;52.170;20.884;2024-02-21T08:28:57;100689.69;;;8.86;92.98
21276;BME280;36472;52.170;20.884;2024-02-21T08:31:28;100691.16;;;8.92;92.77
21276;BME280;36472;52.170;20.884;2024-02-21T08:34:00;100689.44;;;8.75;92.91
21276;BME280;36472;52.170;20.884;2024-02-21T08:36:31;100694.63;;;8.92;92.24
21276;BME280;36472;52.170;20.884;2024-02-21T08:39:01;100690.44;;;9.06;92.74
21276;BME280;36472;52.170;20.884;2024-02-21T08:41:32;100687.88;;;8.88;92.73
21276;BME280;36472;52.170;20.884;2024-02-21T08:44:23;100686.22;;;9.19;91.94
21276;BME280;36472;52.170;20.884;2024-02-21T08:46:54;100684.50;;;9.34;91.36
21276;BME280;36472;52.170;20.884;2024-02-21T08:49:24;100686.03;;;9.38;91.65
21276;BME280;36472;52.170;20.884;2024-02-21T08:52:01;100683.34;;;9.40;90.83
21276;BME280;36472;52.170;20.884;2024-02-21T08:54:32;100679.00;;;9.39;90.43
21276;BME280;36472;52.170;20.884;2024-02-21T08:57:02;100678.59;;;9.46;91.48
21276;BME280;36472;52.170;20.884;2024-02-21T08:59:33;100666.06;;;9.20;90.41
21276;BME280;36472;52.170;20.884;2024-02-21T09:02:03;100669.84;;;9.46;89.50
21276;BME280;36472;52.170;20.884;2024-02-21T09:04:32;100670.53;;;9.49;89.70
21276;BME280;36472;52.170;20.884;2024-02-21T09:07:02;100658.66;;;9.58;89.47
21276;BME280;36472;52.170;20.884;2024-02-21T09:09:31;100666.09;;;9.66;90.16
21276;BME280;36472;52.170;20.884;2024-02-21T09:12:01;100665.44;;;9.62;89.61
21276;BME280;36472;52.170;20.884;2024-02-21T09:14:38;100657.69;;;9.45;89.67
21276;BME280;36472;52.170;20.884;2024-02-21T09:17:07;100661.97;;;9.46;90.55
21276;BME280;36472;52.170;20.884;2024-02-21T09:19:36;100661.06;;;9.47;92.14
21276;BME280;36472;52.170;20.884;2024-02-21T09:22:05;100661.91;;;9.47;92.50
21276;BME280;36472;52.170;20.884;2024-02-21T09:24:34;100661.38;;;9.41;92.03
21276;BME280;36472;52.170;20.884;2024-02-21T09:27:04;100659.34;;;9.46;91.75
21276;BME280;36472;52.170;20.884;2024-02-21T09:29:35;100658.78;;;9.25;92.10
21276;BME280;36472;52.170;20.884;2024-02-21T09:32:05;100657.09;;;9.40;91.29
21276;BME280;36472;52.170;20.884;2024-02-21T09:34:34;100667.66;;;9.38;90.87
21276;BME280;36472;52.170;20.884;2024-02-21T09:37:04;100658.59;;;8.96;92.03
21276;BME280;36472;52.170;20.884;2024-02-21T09:39:33;100658.72;;;9.26;91.20
21276;BME280;36472;52.170;20.884;2024-02-21T09:42:06;100657.59;;;9.30;91.01
21276;BME280;36472;52.170;20.884;2024-02-21T09:44:38;100654.06;;;9.31;90.05
21276;BME280;36472;52.170;20.884;2024-02-21T09:47:15;100650.22;;;9.37;90.45
21276;BME280;36472;52.170;20.884;2024-02-21T09:49:46;100653.53;;;9.57;90.66
21276;BME280;36472;52.170;20.884;2024-02-21T09:52:18;100654.84;;;9.64;90.60
21276;BME280;36472;52.170;20.884;2024-02-21T09:54:48;100644.84;;;9.70;89.76
21276;BME280;36472;52.170;20.884;2024-02-21T09:57:22;100641.44;;;9.68;90.61
21276;BME280;36472;52.170;20.884;2024-02-21T09:59:55;100649.25;;;9.70;89.89
21276;BME280;36472;52.170;20.884;2024-02-21T10:02:27;100643.31;;;9.82;90.28
21276;BME280;36472;52.170;20.884;2024-02-21T10:04:56;100639.19;;;9.92;90.12
21276;BME280;36472;52.170;20.884;2024-02-21T10:07:26;100644.47;;;9.92;88.63
21276;BME280;36472;52.170;20.884;2024-02-21T10:10:01;100639.94;;;9.95;88.51
21276;BME280;36472;52.170;20.884;2024-02-21T10:12:31;100631.09;;;9.81;88.87
21276;BME280;36472;52.170;20.884;2024-02-21T10:15:06;100622.50;;;9.63;88.04
21276;BME280;36472;52.170;20.884;2024-02-21T10:17:35;100623.47;;;9.77;87.59
21276;BME280;36472;52.170;20.884;2024-02-21T10:20:08;100630.75;;;9.87;87.58
21276;BME280;36472;52.170;20.884;2024-02-21T10:22:38;100619.19;;;9.76;87.37
21276;BME280;36472;52.170;20.884;2024-02-21T10:25:08;100623.06;;;9.84;86.69
21276;BME280;36472;52.170;20.884;2024-02-21T10:27:38;100616.69;;;9.88;87.23
21276;BME280;36472;52.170;20.884;2024-02-21T10:30:14;100615.34;;;9.81;87.01
21276;BME280;36472;52.170;20.884;2024-02-21T10:32:51;100616.56;;;9.76;87.60
21276;BME280;36472;52.170;20.884;2024-02-21T10:35:27;100611.25;;;9.91;88.10
21276;BME280;36472;52.170;20.884;2024-02-21T10:37:59;100618.00;;;9.96;87.54
21276;BME280;36472;52.170;20.884;2024-02-21T10:40:29;100609.84;;;10.00;88.08
21276;BME280;36472;52.170;20.884;2024-02-21T10:43:01;100606.31;;;10.01;88.38
21276;BME280;36472;52.170;20.884;2024-02-21T10:45:35;100607.78;;;10.05;88.85
21276;BME280;36472;52.170;20.884;2024-02-21T10:48:11;100600.75;;;10.06;89.28
21276;BME280;36472;52.170;20.884;2024-02-21T10:50:55;100600.66;;;10.07;88.63
21276;BME280;36472;52.170;20.884;2024-02-21T10:53:41;100607.13;;;10.02;88.53
21276;BME280;36472;52.170;20.884;2024-02-21T10:56:32;100601.13;;;10.00;89.22
21276;BME280;36472;52.170;20.884;2024-02-21T10:59:05;100596.28;;;10.08;88.32
21276;BME280;36472;52.170;20.884;2024-02-21T11:01:36;100588.75;;;10.16;88.22
21276;BME280;36472;52.170;20.884;2024-02-21T11:04:09;100588.84;;;10.00;87.87
21276;BME280;36472;52.170;20.884;2024-02-21T11:06:41;100581.72;;;10.02;87.58
21276;BME280;36472;52.170;20.884;2024-02-21T11:09:11;100572.63;;;9.93;87.50
21276;BME280;36472;52.170;20.884;2024-02-21T11:11:43;100574.97;;;9.98;88.23
21276;BME280;36472;52.170;20.884;2024-02-21T11:14:20;100569.06;;;9.95;88.76
21276;BME280;36472;52.170;20.884;2024-02-21T11:16:50;100563.72;;;9.96;88.83
21276;BME280;36472;52.170;20.884;2024-02-21T11:19:22;100571.47;;;9.83;89.95
21276;BME280;36472;52.170;20.884;2024-02-21T11:21:53;100562.19;;;9.78;89.78
21276;BME280;36472;52.170;20.884;2024-02-21T11:24:27;100564.25;;;9.72;90.67
21276;BME280;36472;52.170;20.884;2024-02-21T11:27:08;100554.00;;;9.68;91.16
21276;BME280;36472;52.170;20.884;2024-02-21T11:29:41;100550.56;;;9.67;92.18
21276;BME280;36472;52.170;20.884;2024-02-21T11:32:15;100545.81;;;9.58;93.38
21276;BME280;36472;52.170;20.884;2024-02-21T11:34:55;100552.44;;;9.65;94.05
21276;BME280;36472;52.170;20.884;2024-02-21T11:37:25;100547.88;;;9.53;94.50
21276;BME280;36472;52.170;20.884;2024-02-21T11:39:56;100551.63;;;9.49;94.69
21276;BME280;36472;52.170;20.884;2024-02-21T11:42:26;100548.44;;;9.44;95.30
21276;BME280;36472;52.170;20.884;2024-02-21T11:44:56;100541.41;;;9.14;95.73
21276;BME280;36472;52.170;20.884;2024-02-21T11:47:29;100544.28;;;9.09;96.35
21276;BME280;36472;52.170;20.884;2024-02-21T11:49:58;100542.50;;;9.10;97.55
21276;BME280;36472;52.170;20.884;2024-02-21T11:52:28;100542.50;;;9.10;97.91
21276;BME280;36472;52.170;20.884;2024-02-21T11:54:57;100538.28;;;9.07;98.28
21276;BME280;36472;52.170;20.884;2024-02-21T11:57:33;100539.19;;;9.06;98.76
21276;BME280;36472;52.170;20.884;2024-02-21T12:00:13;100536.66;;;9.05;98.93
21276;BME280;36472;52.170;20.884;2024-02-21T12:02:44;100524.59;;;9.02;100.00
21276;BME280;36472;52.170;20.884;2024-02-21T12:05:14;100525.84;;;9.11;100.00
21276;BME280;36472;52.170;20.884;2024-02-21T12:07:44;100519.16;;;9.05;100.00
21276;BME280;36472;52.170;20.884;2024-02-21T12:10:14;100524.31;;;9.07;100.00
21276;BME280;36472;52.170;20.884;2024-02-21T12:12:43;100522.97;;;8.99;99.91
21276;BME280;36472;52.170;20.884;2024-02-21T12:15:12;100518.25;;;8.90;100.00
21276;BME280;36472;52.170;20.884;2024-02-21T12:17:41;100517.97;;;8.95;100.00
21276;BME280;36472;52.170;20.884;2024-02-21T12:20:12;100510.13;;;8.95;100.00
21276;BME280;36472;52.170;20.884;2024-02-21T12:22:42;100506.91;;;8.90;100.00
21276;BME280;36472;52.170;20.884;2024-02-21T12:25:18;100511.16;;;8.92;100.00
21276;BME280;36472;52.170;20.884;2024-02-21T12:27:48;100517.06;;;8.96;100.00
21276;BME280;36472;52.170;20.884;2024-02-21T12:30:19;100507.78;;;8.90;100.00
21276;BME280;36472;52.170;20.884;2024-02-21T12:32:48;100507.16;;;9.01;100.00
21276;BME280;36472;52.170;20.884;2024-02-21T12:35:19;100503.19;;;8.94;100.00
21276;BME280;36472;52.170;20.884;2024-02-21T12:37:48;100495.75;;;8.86;100.00
21276;BME280;36472;52.170;20.884;2024-02-21T12:40:17;100481.09;;;8.68;100.00
21276;BME280;36472;52.170;20.884;2024-02-21T12:42:46;100490.13;;;8.78;100.00
21276;BME280;36472;52.170;20.884;2024-02-21T12:45:16;100488.16;;;8.66;100.00
21276;BME280;36472;52.170;20.884;2024-02-21T12:47:45;100485.63;;;8.80;100.00
21276;BME280;36472;52.170;20.884;2024-02-21T12:50:14;100484.09;;;8.76;100.00
21276;BME280;36472;52.170;20.884;2024-02-21T12:52:45;100470.03;;;8.63;100.00
21276;BME280;36472;52.170;20.884;2024-02-21T12:55:15;100472.88;;;8.74;100.00
21276;BME280;36472;52.170;20.884;2024-02-21T12:57:44;100472.78;;;8.75;100.00
21276;BME280;36472;52.170;20.884;2024-02-21T13:00:14;100471.94;;;8.75;100.00
21276;BME280;36472;52.170;20.884;2024-02-21T13:02:44;100475.16;;;8.80;100.00
21276;BME280;36472;52.170;20.884;2024-02-21T13:05:14;100468.22;;;8.79;100.00